Time;durP1;ratioP1;P1;durP2;ratioP2;P2;SDS_P1;SDS_P2;PMS_P1;PMS_P2;Temp;Humidity;BMP_temperature;BMP_pressure;BME280_temperature;BME280_humidity;BME280_pressure;Samples;Min_cycle;Max_cycle;Signal;HPM_P1;HPM_P2
2021/06/16 00:00:32;;;;;;;1.77;1.00;;;;;;;;;;4952915;29;20043;-72
2021/06/16 00:02:58;;;;;;;1.40;1.00;;;;;;;;;;4952432;28;20070;-73
2021/06/16 00:05:24;;;;;;;1.30;0.90;;;;;;;;;;4952519;29;20337;-74
2021/06/16 00:07:49;;;;;;;2.10;0.98;;;;;;;;;;4952369;28;20274;-73
2021/06/16 00:10:15;;;;;;;0.90;0.80;;;;;;;;;;4952810;28;20026;-72
2021/06/16 00:12:40;;;;;;;1.38;0.80;;;;;;;;;;4952393;28;20387;-73
2021/06/16 00:15:08;;;;;;;1.50;1.07;;;;;;;;;;4952447;29;20035;-70
2021/06/16 00:17:33;;;;;;;1.40;0.93;;;;;;;;;;4952138;28;20654;-71
2021/06/16 00:19:58;;;;;;;2.60;1.03;;;;;;;;;;4951681;28;20042;-74
2021/06/16 00:22:23;;;;;;;1.17;0.73;;;;;;;;;;4951889;28;20826;-74
2021/06/16 00:24:48;;;;;;;1.25;0.90;;;;;;;;;;4951634;28;20510;-74
2021/06/16 00:27:14;;;;;;;1.27;0.73;;;;;;;;;;4951402;28;20102;-73
2021/06/16 00:29:39;;;;;;;2.00;0.90;;;;;;;;;;4952076;28;20505;-73
2021/06/16 00:32:05;;;;;;;1.40;0.90;;;;;;;;;;4952031;28;20650;-73
2021/06/16 00:34:31;;;;;;;1.50;1.13;;;;;;;;;;4952256;28;20783;-72
2021/06/16 00:36:56;;;;;;;1.33;0.95;;;;;;;;;;4952018;28;20025;-72
2021/06/16 00:39:21;;;;;;;1.17;0.93;;;;;;;;;;4951513;28;20494;-72
2021/06/16 00:41:46;;;;;;;1.40;1.00;;;;;;;;;;4952103;28;20259;-73
2021/06/16 00:44:12;;;;;;;1.43;1.17;;;;;;;;;;4952531;28;20078;-73
2021/06/16 00:46:37;;;;;;;1.57;1.03;;;;;;;;;;4951952;28;20358;-73
2021/06/16 00:49:03;;;;;;;1.50;0.98;;;;;;;;;;4951675;28;20055;-73
2021/06/16 00:51:28;;;;;;;1.65;0.82;;;;;;;;;;4952000;28;20478;-73
2021/06/16 00:53:54;;;;;;;1.30;0.90;;;;;;;;;;4934742;28;20033;-72
2021/06/16 00:56:19;;;;;;;1.40;0.95;;;;;;;;;;4925920;28;20035;-72
2021/06/16 00:58:44;;;;;;;1.60;0.90;;;;;;;;;;4930480;28;20134;-72
2021/06/16 01:01:14;;;;;;;1.55;1.15;;;;;;;;;;4934049;28;20321;-74
2021/06/16 01:03:43;;;;;;;1.95;1.00;;;;;;;;;;4949820;28;20051;-71
2021/06/16 01:06:09;;;;;;;1.20;0.90;;;;;;;;;;4950170;28;20035;-73
2021/06/16 01:08:35;;;;;;;1.15;0.82;;;;;;;;;;4951542;28;20620;-72
2021/06/16 01:11:02;;;;;;;1.45;1.10;;;;;;;;;;4950292;29;20082;-72
2021/06/16 01:13:50;;;;;;;1.58;0.90;;;;;;;;;;4951743;28;20076;-72
2021/06/16 01:16:29;;;;;;;1.35;0.98;;;;;;;;;;4945803;29;20043;-72
2021/06/16 01:18:55;;;;;;;1.10;0.90;;;;;;;;;;4949894;29;20027;-72
2021/06/16 01:21:21;;;;;;;1.20;0.80;;;;;;;;;;4951189;29;20040;-72
2021/06/16 01:23:56;;;;;;;1.20;0.90;;;;;;;;;;4950101;29;20031;-72
2021/06/16 01:26:40;;;;;;;1.58;1.10;;;;;;;;;;4950717;28;20031;-72
2021/06/16 01:29:07;;;;;;;1.55;0.93;;;;;;;;;;4949692;29;20645;-72
2021/06/16 01:31:32;;;;;;;2.00;1.00;;;;;;;;;;4949774;29;20713;-72
2021/06/16 01:33:58;;;;;;;1.07;0.97;;;;;;;;;;4950020;28;20028;-72
2021/06/16 01:36:24;;;;;;;1.43;0.83;;;;;;;;;;4949782;29;20325;-72
2021/06/16 01:38:49;;;;;;;1.27;0.82;;;;;;;;;;4949587;28;20019;-72
2021/06/16 01:41:14;;;;;;;1.00;0.90;;;;;;;;;;4951057;29;20058;-73
2021/06/16 01:43:39;;;;;;;1.10;0.80;;;;;;;;;;4949514;28;20038;-72
2021/06/16 01:46:05;;;;;;;1.35;0.88;;;;;;;;;;4949115;28;20027;-72
2021/06/16 01:48:30;;;;;;;1.67;1.00;;;;;;;;;;4949422;29;20019;-72
2021/06/16 01:50:55;;;;;;;1.08;0.82;;;;;;;;;;4949509;29;20034;-72
2021/06/16 01:53:21;;;;;;;1.20;1.00;;;;;;;;;;4950805;28;20046;-72
2021/06/16 01:55:46;;;;;;;1.15;0.80;;;;;;;;;;4949313;28;20236;-72
2021/06/16 01:58:11;;;;;;;1.60;0.80;;;;;;;;;;4949586;29;20033;-73
2021/06/16 02:00:37;;;;;;;1.37;0.80;;;;;;;;;;4949073;28;20031;-72
2021/06/16 02:03:03;;;;;;;1.48;1.08;;;;;;;;;;4950542;28;20378;-72
2021/06/16 02:05:29;;;;;;;1.17;0.90;;;;;;;;;;4950221;28;20502;-72
2021/06/16 02:07:56;;;;;;;1.38;0.70;;;;;;;;;;4950447;28;20042;-72
2021/06/16 02:10:22;;;;;;;2.05;1.00;;;;;;;;;;4950282;28;20413;-72
2021/06/16 02:12:48;;;;;;;1.45;0.90;;;;;;;;;;4949202;28;20106;-72
2021/06/16 02:15:14;;;;;;;1.60;1.00;;;;;;;;;;4932956;29;20569;-72
2021/06/16 02:17:40;;;;;;;1.58;1.08;;;;;;;;;;4950076;28;20031;-72
2021/06/16 02:20:06;;;;;;;1.25;0.88;;;;;;;;;;4948794;28;20510;-73
2021/06/16 02:22:31;;;;;;;1.70;1.00;;;;;;;;;;4950444;28;20027;-73
2021/06/16 02:24:57;;;;;;;1.33;0.80;;;;;;;;;;4950337;29;20046;-73
2021/06/16 02:27:22;;;;;;;1.48;0.95;;;;;;;;;;4948829;28;20267;-72
2021/06/16 02:29:47;;;;;;;1.30;0.90;;;;;;;;;;4950159;29;20027;-72
2021/06/16 02:32:12;;;;;;;1.40;0.93;;;;;;;;;;4948828;29;20043;-72
2021/06/16 02:34:38;;;;;;;1.83;1.13;;;;;;;;;;4948676;29;20028;-72
2021/06/16 02:37:04;;;;;;;1.40;0.93;;;;;;;;;;4950027;28;20067;-72
2021/06/16 02:39:40;;;;;;;1.20;0.80;;;;;;;;;;4949998;28;20023;-72
2021/06/16 02:42:05;;;;;;;1.55;0.90;;;;;;;;;;4949863;28;20525;-72
2021/06/16 02:44:31;;;;;;;1.70;1.27;;;;;;;;;;4949813;28;20114;-72
2021/06/16 02:46:56;;;;;;;1.30;0.90;;;;;;;;;;4940459;29;20039;-72
2021/06/16 02:49:23;;;;;;;1.35;1.05;;;;;;;;;;4930996;29;20102;-72
2021/06/16 02:51:48;;;;;;;0.93;0.82;;;;;;;;;;4932803;28;20094;-73
2021/06/16 02:54:14;;;;;;;1.27;1.00;;;;;;;;;;4950013;29;20457;-72
2021/06/16 02:56:39;;;;;;;1.30;0.93;;;;;;;;;;4948321;29;20266;-72
2021/06/16 02:59:04;;;;;;;1.00;0.90;;;;;;;;;;4948459;29;20023;-72
2021/06/16 03:01:30;;;;;;;1.80;0.98;;;;;;;;;;4948021;28;20361;-72
2021/06/16 03:03:55;;;;;;;1.38;1.00;;;;;;;;;;4948499;29;20186;-72
2021/06/16 03:06:21;;;;;;;1.00;0.80;;;;;;;;;;4948213;29;20035;-72
2021/06/16 03:08:46;;;;;;;1.20;1.00;;;;;;;;;;4949617;28;20030;-72
2021/06/16 03:11:12;;;;;;;1.98;1.20;;;;;;;;;;4949806;28;20034;-72
2021/06/16 03:13:37;;;;;;;1.10;0.93;;;;;;;;;;4949739;28;20031;-72
2021/06/16 03:16:02;;;;;;;0.90;0.80;;;;;;;;;;4949847;29;20031;-71
2021/06/16 03:18:28;;;;;;;1.10;0.90;;;;;;;;;;4949389;28;20643;-71
2021/06/16 03:20:57;;;;;;;1.90;0.90;;;;;;;;;;4949800;28;20122;-71
2021/06/16 03:23:22;;;;;;;1.08;0.80;;;;;;;;;;4949831;28;20035;-71
2021/06/16 03:25:47;;;;;;;1.00;0.80;;;;;;;;;;4951417;28;20509;-71
2021/06/16 03:28:12;;;;;;;1.20;1.00;;;;;;;;;;4953406;28;20027;-71
2021/06/16 03:30:38;;;;;;;1.33;0.90;;;;;;;;;;4951590;29;20078;-71
2021/06/16 03:33:03;;;;;;;1.60;0.80;;;;;;;;;;4952056;28;20019;-73
2021/06/16 03:35:28;;;;;;;1.45;0.98;;;;;;;;;;4951944;29;20122;-72
2021/06/16 03:37:54;;;;;;;1.87;1.00;;;;;;;;;;4952284;29;20077;-72
2021/06/16 03:40:19;;;;;;;1.75;0.90;;;;;;;;;;4953213;28;20270;-71
2021/06/16 03:42:44;;;;;;;1.42;1.02;;;;;;;;;;4953467;29;20172;-71
2021/06/16 03:45:10;;;;;;;1.23;0.80;;;;;;;;;;4951711;28;20114;-72
2021/06/16 03:47:36;;;;;;;1.38;1.00;;;;;;;;;;4952998;28;20078;-72
2021/06/16 03:50:02;;;;;;;1.38;1.20;;;;;;;;;;4953226;28;20829;-71
2021/06/16 03:52:27;;;;;;;1.40;1.10;;;;;;;;;;4952998;28;20693;-73
2021/06/16 03:54:53;;;;;;;1.50;1.00;;;;;;;;;;4953239;28;20541;-72
2021/06/16 03:57:19;;;;;;;1.50;0.98;;;;;;;;;;4952704;28;20062;-72
2021/06/16 03:59:44;;;;;;;1.77;0.90;;;;;;;;;;4941338;28;20098;-74
2021/06/16 04:02:09;;;;;;;1.60;1.00;;;;;;;;;;4933548;29;20103;-77
2021/06/16 04:04:34;;;;;;;1.03;0.90;;;;;;;;;;4951184;28;20043;-73
2021/06/16 04:07:00;;;;;;;1.20;0.98;;;;;;;;;;4960179;28;21116;-73
2021/06/16 04:09:25;;;;;;;1.40;1.02;;;;;;;;;;4963090;28;20064;-73
2021/06/16 04:11:50;;;;;;;1.03;0.83;;;;;;;;;;4962830;28;20487;-74
2021/06/16 04:14:16;;;;;;;1.52;0.93;;;;;;;;;;4966228;28;20493;-71
2021/06/16 04:16:42;;;;;;;1.05;0.88;;;;;;;;;;4924734;28;20591;-72
2021/06/16 04:19:07;;;;;;;2.15;1.25;;;;;;;;;;4950708;28;20044;-71
2021/06/16 04:21:32;;;;;;;1.50;0.83;;;;;;;;;;4951349;28;20050;-71
2021/06/16 04:24:10;;;;;;;1.42;0.90;;;;;;;;;;4952218;28;20019;-70
2021/06/16 04:26:35;;;;;;;1.33;0.90;;;;;;;;;;4948908;28;20050;-70
2021/06/16 04:29:00;;;;;;;2.42;1.05;;;;;;;;;;4952204;28;20488;-71
2021/06/16 04:31:25;;;;;;;1.40;1.00;;;;;;;;;;4950226;28;20066;-73
2021/06/16 04:33:51;;;;;;;2.00;0.90;;;;;;;;;;4952778;28;20259;-70
2021/06/16 04:36:16;;;;;;;2.97;1.10;;;;;;;;;;4951398;28;20239;-72
2021/06/16 04:38:41;;;;;;;1.90;1.27;;;;;;;;;;4951110;28;20023;-72
2021/06/16 04:41:07;;;;;;;2.00;1.30;;;;;;;;;;4952985;28;20767;-72
2021/06/16 04:43:32;;;;;;;2.00;1.10;;;;;;;;;;4951373;28;20565;-72
2021/06/16 04:45:57;;;;;;;2.63;1.20;;;;;;;;;;4950542;28;20031;-75
2021/06/16 04:48:23;;;;;;;3.70;1.50;;;;;;;;;;4947308;28;20290;-73
2021/06/16 04:50:48;;;;;;;2.85;1.40;;;;;;;;;;4950919;28;20498;-75
2021/06/16 04:53:13;;;;;;;4.23;1.23;;;;;;;;;;4950998;28;20047;-71
2021/06/16 04:55:38;;;;;;;3.60;1.33;;;;;;;;;;4950224;28;20122;-73
2021/06/16 04:58:04;;;;;;;1.90;1.07;;;;;;;;;;4951125;28;20114;-69
2021/06/16 05:00:29;;;;;;;2.38;1.23;;;;;;;;;;4950023;28;20258;-71
2021/06/16 05:02:54;;;;;;;4.60;1.47;;;;;;;;;;4950127;28;20043;-71
2021/06/16 05:05:20;;;;;;;2.60;1.30;;;;;;;;;;4948940;28;20287;-72
2021/06/16 05:07:45;;;;;;;2.00;1.30;;;;;;;;;;4950379;28;20031;-72
2021/06/16 05:10:10;;;;;;;2.10;1.40;;;;;;;;;;4951133;28;20034;-71
2021/06/16 05:12:36;;;;;;;3.15;1.20;;;;;;;;;;4949921;28;21402;-72
2021/06/16 05:15:01;;;;;;;2.30;1.20;;;;;;;;;;4950894;28;20070;-73
2021/06/16 05:17:26;;;;;;;1.80;1.20;;;;;;;;;;4949288;28;20318;-71
2021/06/16 05:19:56;;;;;;;1.50;1.20;;;;;;;;;;4955749;28;20039;-70
2021/06/16 05:22:21;;;;;;;;;;;;;;;;;;4951182;28;20031;-71
2021/06/16 05:24:47;;;;;;;3.08;1.38;;;;;;;;;;4951655;28;19921;-71
2021/06/16 05:27:12;;;;;;;1.70;1.40;;;;;;;;;;4955831;28;20038;-71
2021/06/16 05:29:38;;;;;;;1.48;0.90;;;;;;;;;;4949270;28;20031;-72
2021/06/16 05:32:03;;;;;;;1.90;1.50;;;;;;;;;;4949869;28;20031;-72
2021/06/16 05:34:28;;;;;;;2.22;1.38;;;;;;;;;;4950016;28;20033;-71
2021/06/16 05:36:53;;;;;;;1.73;1.30;;;;;;;;;;4949697;28;20034;-72
2021/06/16 05:39:19;;;;;;;1.80;1.30;;;;;;;;;;4962798;28;20273;-73
2021/06/16 05:41:44;;;;;;;2.15;1.23;;;;;;;;;;4957877;28;20263;-72
2021/06/16 05:44:09;;;;;;;3.13;1.52;;;;;;;;;;4950387;28;20485;-72
2021/06/16 05:46:35;;;;;;;4.13;1.70;;;;;;;;;;4951435;28;20035;-72
2021/06/16 05:49:00;;;;;;;2.55;1.40;;;;;;;;;;4956907;28;20027;-71
2021/06/16 05:51:25;;;;;;;1.90;1.27;;;;;;;;;;4963255;28;20134;-73
2021/06/16 05:53:51;;;;;;;4.15;1.90;;;;;;;;;;4961781;28;20050;-72
2021/06/16 05:56:16;;;;;;;1.98;1.50;;;;;;;;;;4962263;28;20504;-71
2021/06/16 05:58:41;;;;;;;3.33;1.50;;;;;;;;;;4964665;28;20062;-72
2021/06/16 06:01:07;;;;;;;6.90;1.40;;;;;;;;;;4961357;28;20341;-71
2021/06/16 06:03:32;;;;;;;4.10;1.65;;;;;;;;;;4962505;28;20074;-76
2021/06/16 06:05:57;;;;;;;2.28;1.38;;;;;;;;;;4960921;28;20581;-74
2021/06/16 06:08:23;;;;;;;2.50;1.50;;;;;;;;;;4967501;28;20379;-73
2021/06/16 06:10:48;;;;;;;3.63;1.45;;;;;;;;;;4965725;28;20026;-72
2021/06/16 06:13:14;;;;;;;2.72;1.38;;;;;;;;;;4962396;28;20023;-72
2021/06/16 06:15:39;;;;;;;3.60;1.50;;;;;;;;;;4959013;28;20063;-73
2021/06/16 06:18:04;;;;;;;2.17;1.27;;;;;;;;;;4948817;28;20394;-72
2021/06/16 06:20:30;;;;;;;1.88;1.27;;;;;;;;;;4953829;28;20038;-70
2021/06/16 06:22:56;;;;;;;3.53;1.42;;;;;;;;;;4959862;28;20537;-70
2021/06/16 06:25:21;;;;;;;4.20;1.70;;;;;;;;;;4961847;28;20058;-71
2021/06/16 06:27:47;;;;;;;2.70;1.70;;;;;;;;;;4947236;28;20562;-70
2021/06/16 06:30:12;;;;;;;2.70;1.50;;;;;;;;;;4949666;28;20027;-71
2021/06/16 06:32:38;;;;;;;3.72;1.75;;;;;;;;;;4961887;28;20027;-71
2021/06/16 06:35:03;;;;;;;4.43;1.67;;;;;;;;;;4961816;28;20546;-70
2021/06/16 06:37:28;;;;;;;5.53;1.60;;;;;;;;;;4962376;28;20289;-70
2021/06/16 06:39:54;;;;;;;3.47;1.50;;;;;;;;;;4954850;28;20023;-70
2021/06/16 06:42:19;;;;;;;3.40;1.83;;;;;;;;;;4958315;28;20050;-70
2021/06/16 06:44:44;;;;;;;3.10;1.50;;;;;;;;;;4964767;28;20490;-72
2021/06/16 06:47:10;;;;;;;4.05;1.73;;;;;;;;;;4949248;28;20298;-71
2021/06/16 06:49:35;;;;;;;2.20;1.50;;;;;;;;;;4947960;28;20541;-70
2021/06/16 06:52:00;;;;;;;4.75;1.83;;;;;;;;;;4947045;28;20105;-70
2021/06/16 06:54:26;;;;;;;4.03;1.63;;;;;;;;;;4949274;28;20410;-70
2021/06/16 06:56:57;;;;;;;2.77;1.43;;;;;;;;;;4949677;28;20513;-70
2021/06/16 06:59:22;;;;;;;2.95;1.40;;;;;;;;;;4949359;28;20705;-70
2021/06/16 07:01:50;;;;;;;4.32;1.67;;;;;;;;;;4948525;28;20094;-70
2021/06/16 07:04:15;;;;;;;1.90;1.40;;;;;;;;;;4950300;28;20184;-69
2021/06/16 07:06:41;;;;;;;2.33;1.80;;;;;;;;;;4948643;28;20130;-69
2021/06/16 07:09:06;;;;;;;3.80;2.05;;;;;;;;;;4943425;28;20134;-71
2021/06/16 07:11:32;;;;;;;2.83;1.60;;;;;;;;;;4948165;28;20028;-71
2021/06/16 07:13:57;;;;;;;3.28;1.77;;;;;;;;;;4949392;28;20504;-72
2021/06/16 07:16:23;;;;;;;2.00;1.30;;;;;;;;;;4949439;28;20027;-72
2021/06/16 07:18:52;;;;;;;3.33;1.73;;;;;;;;;;4932298;29;20354;-71
2021/06/16 07:21:17;;;;;;;4.55;1.75;;;;;;;;;;4948721;28;20493;-71
2021/06/16 07:23:42;;;;;;;3.05;1.70;;;;;;;;;;4949094;28;20024;-71
2021/06/16 07:26:07;;;;;;;2.10;1.67;;;;;;;;;;4948881;28;20127;-71
2021/06/16 07:28:33;;;;;;;4.03;1.70;;;;;;;;;;4949346;28;20090;-71
2021/06/16 07:30:58;;;;;;;2.40;1.60;;;;;;;;;;4949075;28;20459;-72
2021/06/16 07:33:23;;;;;;;2.55;1.70;;;;;;;;;;4948716;28;20023;-71
2021/06/16 07:35:49;;;;;;;3.97;1.83;;;;;;;;;;4950180;28;20178;-72
2021/06/16 07:38:14;;;;;;;4.75;1.75;;;;;;;;;;4948858;28;20050;-71
2021/06/16 07:40:39;;;;;;;2.30;1.30;;;;;;;;;;4949679;28;20042;-71
2021/06/16 07:43:05;;;;;;;2.77;1.77;;;;;;;;;;4950700;28;20258;-71
2021/06/16 07:45:30;;;;;;;1.70;1.50;;;;;;;;;;4949178;28;20294;-71
2021/06/16 07:47:56;;;;;;;2.50;1.55;;;;;;;;;;4948307;28;20027;-71
2021/06/16 07:50:21;;;;;;;2.88;1.80;;;;;;;;;;4949466;28;20030;-71
2021/06/16 07:52:46;;;;;;;2.15;1.58;;;;;;;;;;4949327;28;20088;-72
2021/06/16 07:55:12;;;;;;;2.47;1.52;;;;;;;;;;4948880;28;20031;-72
2021/06/16 07:57:38;;;;;;;5.15;1.90;;;;;;;;;;4948496;28;20038;-71
2021/06/16 08:00:04;;;;;;;2.58;1.50;;;;;;;;;;4949248;28;20023;-72
2021/06/16 08:02:30;;;;;;;2.55;1.70;;;;;;;;;;4949405;28;20041;-72
2021/06/16 08:04:55;;;;;;;3.10;1.85;;;;;;;;;;4949211;28;20094;-71
2021/06/16 08:07:20;;;;;;;4.10;1.90;;;;;;;;;;4949062;28;20053;-72
2021/06/16 08:09:46;;;;;;;3.33;1.60;;;;;;;;;;4949217;28;20030;-72
2021/06/16 08:12:11;;;;;;;3.42;1.50;;;;;;;;;;4962715;28;20362;-71
2021/06/16 08:14:37;;;;;;;2.65;1.70;;;;;;;;;;4933337;29;20012;-71
2021/06/16 08:17:02;;;;;;;2.78;1.80;;;;;;;;;;4933095;29;20027;-71
2021/06/16 08:19:28;;;;;;;2.75;1.75;;;;;;;;;;4934345;28;20031;-72
2021/06/16 08:21:53;;;;;;;2.15;1.60;;;;;;;;;;4951521;28;20019;-72
2021/06/16 08:24:18;;;;;;;2.80;1.80;;;;;;;;;;4952221;28;20031;-72
2021/06/16 08:26:43;;;;;;;2.57;1.60;;;;;;;;;;4950668;28;20294;-71
2021/06/16 08:29:09;;;;;;;1.85;1.27;;;;;;;;;;4952921;28;20776;-72
2021/06/16 08:31:34;;;;;;;2.13;1.85;;;;;;;;;;4952828;28;20422;-71
2021/06/16 08:33:59;;;;;;;2.67;1.90;;;;;;;;;;4951479;28;20011;-71
2021/06/16 08:36:25;;;;;;;2.50;1.77;;;;;;;;;;4953073;28;20034;-72
2021/06/16 08:38:50;;;;;;;3.50;1.85;;;;;;;;;;4952456;29;20048;-71
2021/06/16 08:41:15;;;;;;;3.20;1.67;;;;;;;;;;4947919;29;20023;-71
2021/06/16 08:43:44;;;;;;;2.67;1.70;;;;;;;;;;4950673;28;20039;-72
2021/06/16 08:46:12;;;;;;;2.85;1.55;;;;;;;;;;4951350;28;20115;-72
2021/06/16 08:48:37;;;;;;;2.70;1.70;;;;;;;;;;4959476;28;20028;-72
2021/06/16 08:51:03;;;;;;;2.55;1.88;;;;;;;;;;4951811;28;20501;-72
2021/06/16 08:53:29;;;;;;;4.10;1.63;;;;;;;;;;4952355;28;20159;-72
2021/06/16 08:55:54;;;;;;;3.08;2.00;;;;;;;;;;4950070;28;20141;-72
2021/06/16 08:58:19;;;;;;;3.07;1.90;;;;;;;;;;4951625;29;20027;-72
2021/06/16 09:00:44;;;;;;;2.58;1.67;;;;;;;;;;4949343;28;20029;-71
2021/06/16 09:03:12;;;;;;;3.33;1.73;;;;;;;;;;4950900;28;20050;-74
2021/06/16 09:05:38;;;;;;;3.53;1.65;;;;;;;;;;4948437;28;20035;-72
2021/06/16 09:08:16;;;;;;;3.22;1.67;;;;;;;;;;4950407;28;20534;-73
2021/06/16 09:10:45;;;;;;;5.13;2.05;;;;;;;;;;4950515;28;20027;-72
2021/06/16 09:13:11;;;;;;;3.03;1.80;;;;;;;;;;4950854;28;20019;-72
2021/06/16 09:15:38;;;;;;;3.47;1.98;;;;;;;;;;4949810;28;20026;-72
2021/06/16 09:18:06;;;;;;;3.40;1.88;;;;;;;;;;4948826;28;20019;-72
2021/06/16 09:20:43;;;;;;;3.17;1.70;;;;;;;;;;4950296;28;20027;-72
2021/06/16 09:23:12;;;;;;;2.53;1.73;;;;;;;;;;4948201;28;20140;-75
2021/06/16 09:25:38;;;;;;;2.85;1.98;;;;;;;;;;4949805;28;20031;-71
2021/06/16 09:28:03;;;;;;;2.78;1.90;;;;;;;;;;4950479;28;20122;-71
2021/06/16 09:30:30;;;;;;;3.08;2.20;;;;;;;;;;4949895;28;20050;-72
2021/06/16 09:32:57;;;;;;;2.45;1.75;;;;;;;;;;4949527;28;20027;-72
2021/06/16 09:35:22;;;;;;;3.65;1.98;;;;;;;;;;4950098;28;20784;-71
2021/06/16 09:37:47;;;;;;;3.27;1.97;;;;;;;;;;4949296;28;20230;-72
2021/06/16 09:40:13;;;;;;;3.33;1.80;;;;;;;;;;4950568;28;20030;-71
2021/06/16 09:42:38;;;;;;;3.10;2.10;;;;;;;;;;4949783;28;20027;-71
2021/06/16 09:45:04;;;;;;;3.67;2.13;;;;;;;;;;4949383;28;20085;-71
2021/06/16 09:47:29;;;;;;;2.63;1.98;;;;;;;;;;4949207;28;20334;-71
2021/06/16 09:49:58;;;;;;;2.97;1.80;;;;;;;;;;4950298;28;20028;-71
2021/06/16 09:52:27;;;;;;;3.40;2.13;;;;;;;;;;4949165;28;20101;-71
2021/06/16 09:54:52;;;;;;;2.80;2.00;;;;;;;;;;4948714;28;20023;-71
2021/06/16 09:57:17;;;;;;;4.13;2.23;;;;;;;;;;4949245;28;20031;-71
2021/06/16 09:59:43;;;;;;;2.50;1.80;;;;;;;;;;4949527;28;20070;-72
2021/06/16 10:02:14;;;;;;;3.33;2.13;;;;;;;;;;4949748;28;20031;-71
2021/06/16 10:04:42;;;;;;;4.43;2.20;;;;;;;;;;4949601;28;20069;-72
2021/06/16 10:07:13;;;;;;;2.22;2.03;;;;;;;;;;4947252;28;20029;-71
2021/06/16 10:09:39;;;;;;;3.08;1.95;;;;;;;;;;4949408;28;20051;-72
2021/06/16 10:12:05;;;;;;;2.42;1.95;;;;;;;;;;4949414;28;20117;-72
2021/06/16 10:14:30;;;;;;;2.85;1.77;;;;;;;;;;4949520;28;20026;-72
2021/06/16 10:16:56;;;;;;;2.88;1.92;;;;;;;;;;4948852;28;20239;-71
2021/06/16 10:19:21;;;;;;;2.63;1.70;;;;;;;;;;4949872;28;20059;-71
2021/06/16 10:21:46;;;;;;;2.50;1.90;;;;;;;;;;4947268;28;20551;-71
2021/06/16 10:24:11;;;;;;;3.55;2.08;;;;;;;;;;4949528;28;20059;-72
2021/06/16 10:26:37;;;;;;;2.30;1.83;;;;;;;;;;4949090;28;20113;-72
2021/06/16 10:29:03;;;;;;;2.80;2.40;;;;;;;;;;4947144;28;20106;-73
2021/06/16 10:31:32;;;;;;;2.28;1.83;;;;;;;;;;4950940;28;20504;-72
2021/06/16 10:33:58;;;;;;;2.15;1.75;;;;;;;;;;4949390;28;20023;-72
2021/06/16 10:36:23;;;;;;;3.03;2.00;;;;;;;;;;4948369;28;20170;-72
2021/06/16 10:38:58;;;;;;;2.60;2.10;;;;;;;;;;4948013;28;20019;-71
2021/06/16 10:41:42;;;;;;;1.80;1.50;;;;;;;;;;4947742;28;20025;-71
2021/06/16 10:44:10;;;;;;;3.05;1.90;;;;;;;;;;4949394;28;20035;-71
2021/06/16 10:46:48;;;;;;;2.90;1.80;;;;;;;;;;4948714;28;20030;-72
2021/06/16 10:49:13;;;;;;;2.63;1.92;;;;;;;;;;4955338;28;20039;-72
2021/06/16 10:51:39;;;;;;;2.72;2.00;;;;;;;;;;4948587;28;20027;-72
2021/06/16 10:54:19;;;;;;;3.60;1.98;;;;;;;;;;4949294;28;20042;-71
2021/06/16 10:56:49;;;;;;;2.83;1.90;;;;;;;;;;4945795;28;20081;-71
2021/06/16 10:59:14;;;;;;;2.38;1.88;;;;;;;;;;4947819;28;20042;-71
2021/06/16 11:01:49;;;;;;;2.85;2.05;;;;;;;;;;4948668;28;20027;-71
2021/06/16 11:04:25;;;;;;;2.90;1.58;;;;;;;;;;4948867;28;20126;-72
2021/06/16 11:06:50;;;;;;;2.83;1.73;;;;;;;;;;4946447;28;20474;-72
2021/06/16 11:09:15;;;;;;;2.72;1.90;;;;;;;;;;4948943;28;20023;-71
2021/06/16 11:11:48;;;;;;;3.83;1.80;;;;;;;;;;4948443;28;20051;-71
2021/06/16 11:14:32;;;;;;;2.70;1.92;;;;;;;;;;4949141;28;20707;-72
2021/06/16 11:16:57;;;;;;;2.47;1.70;;;;;;;;;;4947362;28;20589;-70
2021/06/16 11:19:38;;;;;;;2.40;1.70;;;;;;;;;;4947849;28;20031;-70
2021/06/16 11:22:06;;;;;;;3.42;2.00;;;;;;;;;;4948227;28;20114;-70
2021/06/16 11:24:53;;;;;;;3.00;1.92;;;;;;;;;;4948669;28;20020;-71
2021/06/16 11:27:37;;;;;;;2.60;2.00;;;;;;;;;;4949043;28;20130;-71
2021/06/16 11:30:14;;;;;;;2.55;1.80;;;;;;;;;;4949316;28;20047;-70
2021/06/16 11:32:39;;;;;;;3.35;1.90;;;;;;;;;;4948503;28;20023;-71
2021/06/16 11:35:05;;;;;;;2.23;1.90;;;;;;;;;;4949114;28;20031;-70
2021/06/16 11:37:49;;;;;;;3.00;1.85;;;;;;;;;;4946683;28;20278;-71
2021/06/16 11:40:14;;;;;;;2.20;1.80;;;;;;;;;;4949433;28;20042;-71
2021/06/16 11:42:40;;;;;;;4.28;1.70;;;;;;;;;;4946855;28;20529;-71
2021/06/16 11:45:05;;;;;;;4.35;1.90;;;;;;;;;;4948944;28;20037;-72
2021/06/16 11:47:31;;;;;;;2.72;1.88;;;;;;;;;;4952318;28;20058;-78
2021/06/16 11:49:59;;;;;;;2.67;1.95;;;;;;;;;;4951587;29;20494;-71
2021/06/16 11:52:25;;;;;;;5.75;1.90;;;;;;;;;;4953363;28;20174;-71
2021/06/16 11:54:50;;;;;;;3.45;2.20;;;;;;;;;;4952812;29;20122;-70
2021/06/16 11:57:15;;;;;;;3.80;1.70;;;;;;;;;;4951090;28;20019;-71
2021/06/16 11:59:41;;;;;;;2.45;1.83;;;;;;;;;;4952363;29;20517;-71
2021/06/16 12:02:06;;;;;;;2.30;1.90;;;;;;;;;;4952817;28;20109;-70
2021/06/16 12:04:44;;;;;;;2.63;1.90;;;;;;;;;;4952677;28;20039;-70
2021/06/16 12:07:09;;;;;;;3.13;1.70;;;;;;;;;;4953023;28;20038;-71
2021/06/16 12:09:47;;;;;;;5.13;1.90;;;;;;;;;;4952456;29;20027;-70
2021/06/16 12:12:13;;;;;;;2.35;1.75;;;;;;;;;;4952207;28;20035;-71
2021/06/16 12:14:38;;;;;;;4.40;1.95;;;;;;;;;;4951255;28;20265;-71
2021/06/16 12:17:04;;;;;;;3.10;1.83;;;;;;;;;;4952151;28;20035;-71
2021/06/16 12:19:32;;;;;;;2.25;1.73;;;;;;;;;;4952403;28;20273;-71
2021/06/16 12:22:04;;;;;;;2.80;1.90;;;;;;;;;;4952386;28;20023;-71
2021/06/16 12:24:30;;;;;;;2.17;1.73;;;;;;;;;;4952417;28;20814;-71
2021/06/16 12:26:56;;;;;;;5.10;1.85;;;;;;;;;;4951844;28;20442;-71
2021/06/16 12:29:21;;;;;;;3.33;2.08;;;;;;;;;;4952399;28;20035;-71
2021/06/16 12:31:49;;;;;;;2.93;1.93;;;;;;;;;;4931843;29;20426;-71
2021/06/16 12:34:19;;;;;;;3.03;2.08;;;;;;;;;;4933053;29;20024;-71
2021/06/16 12:36:44;;;;;;;2.10;1.67;;;;;;;;;;4933005;29;20412;-70
2021/06/16 12:39:23;;;;;;;16.83;3.63;;;;;;;;;;4932912;29;20035;-71
2021/06/16 12:41:53;;;;;;;16.33;3.90;;;;;;;;;;4932834;29;20030;-69
2021/06/16 12:44:18;;;;;;;;;;;;;;;;;;4943744;28;20110;-70
2021/06/16 12:46:51;;;;;;;5.50;2.13;;;;;;;;;;4951505;28;19950;-70
2021/06/16 12:49:19;;;;;;;5.80;1.95;;;;;;;;;;4950260;28;20295;-70
2021/06/16 12:51:47;;;;;;;6.80;2.53;;;;;;;;;;4951998;28;20110;-72
2021/06/16 12:54:21;;;;;;;8.70;2.75;;;;;;;;;;4952100;28;20586;-72
2021/06/16 12:56:57;;;;;;;6.68;2.53;;;;;;;;;;4950273;28;20027;-72
2021/06/16 12:59:30;;;;;;;4.30;2.30;;;;;;;;;;4949894;28;20035;-72
2021/06/16 13:01:56;;;;;;;4.15;2.38;;;;;;;;;;4949512;28;20380;-74
2021/06/16 13:04:40;;;;;;;5.93;2.42;;;;;;;;;;4950173;28;20062;-72
2021/06/16 13:07:05;;;;;;;7.25;2.38;;;;;;;;;;4940805;28;20474;-71
2021/06/16 13:09:30;;;;;;;7.45;2.50;;;;;;;;;;4950524;28;20031;-71
2021/06/16 13:12:01;;;;;;;5.10;2.37;;;;;;;;;;4949960;28;20038;-75
2021/06/16 13:14:37;;;;;;;5.82;2.05;;;;;;;;;;4949044;28;20282;-73
2021/06/16 13:17:08;;;;;;;8.45;2.40;;;;;;;;;;4950879;28;20109;-72
2021/06/16 13:19:49;;;;;;;4.30;2.42;;;;;;;;;;4950017;28;20027;-72
2021/06/16 13:22:14;;;;;;;5.22;2.20;;;;;;;;;;4948556;28;20044;-72
2021/06/16 13:25:05;;;;;;;4.25;2.28;;;;;;;;;;4950626;28;20027;-72
2021/06/16 13:27:44;;;;;;;8.18;2.40;;;;;;;;;;4948828;28;20133;-72
2021/06/16 13:30:12;;;;;;;5.13;2.25;;;;;;;;;;4945856;28;20034;-71
2021/06/16 13:32:38;;;;;;;4.15;2.63;;;;;;;;;;4948906;28;20074;-71
2021/06/16 13:35:03;;;;;;;5.50;2.65;;;;;;;;;;4950427;28;20871;-72
2021/06/16 13:37:28;;;;;;;4.15;2.15;;;;;;;;;;4949841;28;20038;-72
2021/06/16 13:39:54;;;;;;;4.57;2.50;;;;;;;;;;4950604;28;20027;-72
2021/06/16 13:42:20;;;;;;;4.78;2.67;;;;;;;;;;4950319;28;20110;-72
2021/06/16 13:44:45;;;;;;;6.80;2.63;;;;;;;;;;4950406;28;20023;-72
2021/06/16 13:47:11;;;;;;;3.17;2.38;;;;;;;;;;4949718;28;20035;-72
2021/06/16 13:49:36;;;;;;;4.20;2.47;;;;;;;;;;4949066;28;20545;-72
2021/06/16 13:52:02;;;;;;;3.95;2.65;;;;;;;;;;4951623;28;20565;-72
2021/06/16 13:54:27;;;;;;;4.28;2.38;;;;;;;;;;4949972;28;20066;-72
2021/06/16 13:56:52;;;;;;;4.25;2.25;;;;;;;;;;4950220;28;20491;-71
2021/06/16 13:59:17;;;;;;;4.57;2.70;;;;;;;;;;4949737;28;20043;-71
2021/06/16 14:01:43;;;;;;;5.27;2.20;;;;;;;;;;4932745;29;20178;-70
2021/06/16 14:04:09;;;;;;;4.97;2.30;;;;;;;;;;4949170;28;20303;-71
2021/06/16 14:06:34;;;;;;;3.80;2.63;;;;;;;;;;4949308;28;20038;-72
2021/06/16 14:09:03;;;;;;;3.77;2.23;;;;;;;;;;4949097;28;20035;-71
2021/06/16 14:11:28;;;;;;;4.97;2.30;;;;;;;;;;4948292;28;20254;-72
2021/06/16 14:13:54;;;;;;;5.80;2.30;;;;;;;;;;4949327;28;20617;-71
2021/06/16 14:16:20;;;;;;;2.63;2.28;;;;;;;;;;4949217;28;20263;-71
2021/06/16 14:18:45;;;;;;;2.70;2.15;;;;;;;;;;4949194;28;20029;-72
2021/06/16 14:21:10;;;;;;;4.73;2.53;;;;;;;;;;4948988;28;20058;-69
2021/06/16 14:23:35;;;;;;;3.90;2.60;;;;;;;;;;4948305;28;20027;-72
2021/06/16 14:26:02;;;;;;;3.53;2.50;;;;;;;;;;4950916;28;20654;-71
2021/06/16 14:28:31;;;;;;;2.72;2.20;;;;;;;;;;4946970;28;20042;-71
2021/06/16 14:30:56;;;;;;;3.03;2.20;;;;;;;;;;4947009;28;20027;-72
2021/06/16 14:33:23;;;;;;;3.08;2.55;;;;;;;;;;4949658;28;20834;-72
2021/06/16 14:35:49;;;;;;;4.40;2.60;;;;;;;;;;4950200;28;20039;-71
2021/06/16 14:38:15;;;;;;;3.35;2.40;;;;;;;;;;4948539;29;20086;-71
2021/06/16 14:40:40;;;;;;;4.00;2.50;;;;;;;;;;4949731;28;20031;-71